Time;durP1;ratioP1;P1;durP2;ratioP2;P2;SDS_P1;SDS_P2;PMS_P1;PMS_P2;Temp;Humidity;BMP_temperature;BMP_pressure;BME280_temperature;BME280_humidity;BME280_pressure;Samples;Min_cycle;Max_cycle;Signal;HPM_P1;HPM_P2
2022/03/08 00:00:19;;;;;;;16.25;7.05;;;;;;;0.23;68.12;100891.99;1670122;85;25807;-70
2022/03/08 00:02:48;;;;;;;13.48;7.05;;;;;;;0.21;68.32;100889.55;1670207;85;25440;-70
2022/03/08 00:05:15;;;;;;;22.22;7.87;;;;;;;0.20;68.33;100887.11;1670229;85;25668;-70
2022/03/08 00:07:41;;;;;;;17.37;7.85;;;;;;;0.19;68.27;100890.30;1670147;85;27900;-71
2022/03/08 00:10:10;;;;;;;18.35;7.58;;;;;;;0.17;68.14;100887.86;1670144;85;26050;-71
2022/03/08 00:12:36;;;;;;;15.32;7.58;;;;;;;0.12;68.10;100886.40;1669368;83;25726;-70
2022/03/08 00:15:11;;;;;;;18.00;7.55;;;;;;;0.08;67.92;100878.55;1670694;84;26233;-69
2022/03/08 00:17:38;;;;;;;22.65;7.85;;;;;;;0.02;67.78;100879.47;1670368;85;25752;-70
2022/03/08 00:20:08;;;;;;;17.07;7.47;;;;;;;-0.05;67.81;100874.73;1670223;85;27968;-69
2022/03/08 00:22:36;;;;;;;17.10;8.00;;;;;;;-0.12;67.66;100868.69;1705004;84;25844;-69
2022/03/08 00:25:06;;;;;;;20.32;7.70;;;;;;;-0.18;67.32;100858.97;1705518;84;25743;-69
2022/03/08 00:27:32;;;;;;;20.30;7.50;;;;;;;-0.26;67.56;100858.73;1697994;83;25765;-69
2022/03/08 00:29:59;;;;;;;18.55;8.00;;;;;;;-0.32;67.57;100851.64;1697684;84;25714;-70
2022/03/08 00:32:26;;;;;;;18.87;8.38;;;;;;;-0.40;67.45;100846.92;1697674;84;27431;-70
2022/03/08 00:34:53;;;;;;;21.12;8.58;;;;;;;-0.50;67.72;100849.29;1697568;84;25583;-70
2022/03/08 00:37:20;;;;;;;17.95;8.20;;;;;;;-0.55;67.48;100860.30;1697931;84;25812;-69
2022/03/08 00:39:46;;;;;;;23.60;9.75;;;;;;;-0.62;67.61;100863.02;1697976;84;25747;-69
2022/03/08 00:42:13;;;;;;;22.17;9.75;;;;;;;-0.70;67.67;100868.09;1697941;84;25692;-69
2022/03/08 00:44:40;;;;;;;18.60;8.40;;;;;;;-0.79;67.90;100868.09;1697905;84;27323;-69
2022/03/08 00:47:07;;;;;;;19.10;7.78;;;;;;;-0.85;68.03;100871.12;1697735;84;25758;-69
2022/03/08 00:49:35;;;;;;;16.50;8.88;;;;;;;-0.90;68.12;100874.95;1697945;84;25711;-69
2022/03/08 00:52:02;;;;;;;16.45;8.03;;;;;;;-0.96;68.30;100877.14;1697730;84;26566;-70
2022/03/08 00:54:29;;;;;;;20.48;8.70;;;;;;;-1.01;68.40;100873.80;1671997;84;25504;-69
2022/03/08 00:56:55;;;;;;;17.20;8.33;;;;;;;-1.08;68.50;100870.39;1682157;85;27660;-68
2022/03/08 00:59:22;;;;;;;20.10;8.40;;;;;;;-1.14;68.57;100872.08;1682025;84;25884;-68
2022/03/08 01:01:49;;;;;;;19.00;9.28;;;;;;;-1.20;68.84;100878.25;1682116;85;25591;-69
2022/03/08 01:04:16;;;;;;;17.35;8.73;;;;;;;-1.26;68.94;100874.31;1682118;84;25652;-69
2022/03/08 01:06:43;;;;;;;16.42;8.08;;;;;;;-1.32;68.92;100874.67;1682089;85;25633;-69
2022/03/08 01:09:11;;;;;;;17.92;7.70;;;;;;;-1.38;69.18;100871.54;1682161;85;27331;-69
2022/03/08 01:11:39;;;;;;;17.73;8.13;;;;;;;-1.43;69.48;100866.06;1682056;85;25568;-70
2022/03/08 01:14:07;;;;;;;19.37;8.47;;;;;;;-1.48;69.50;100869.38;1656336;85;25605;-70
2022/03/08 01:16:37;;;;;;;14.98;8.03;;;;;;;-1.54;69.48;100859.09;1681975;84;25654;-70
2022/03/08 01:19:06;;;;;;;16.17;7.53;;;;;;;-1.58;69.75;100866.39;1682044;85;25624;-69
2022/03/08 01:21:37;;;;;;;15.98;7.90;;;;;;;-1.64;69.69;100856.10;1682058;84;28035;-69
2022/03/08 01:24:05;;;;;;;17.95;7.65;;;;;;;-1.70;69.65;100856.45;1682055;85;25390;-69
2022/03/08 01:26:31;;;;;;;16.10;7.72;;;;;;;-1.75;70.00;100851.50;1633509;85;25651;-69
2022/03/08 01:28:58;;;;;;;24.15;7.75;;;;;;;-1.79;69.75;100854.26;1682089;85;25701;-69
2022/03/08 01:31:26;;;;;;;16.37;7.87;;;;;;;-1.85;69.83;100855.93;1682072;85;25707;-69
2022/03/08 01:33:54;;;;;;;14.63;7.40;;;;;;;-1.90;70.03;100847.28;1682001;85;27955;-69
2022/03/08 01:36:23;;;;;;;19.27;7.47;;;;;;;-1.93;69.97;100850.34;1682138;84;25673;-70
2022/03/08 01:38:49;;;;;;;14.87;6.65;;;;;;;-1.97;70.06;100845.18;1682088;84;25560;-70
2022/03/08 01:41:17;;;;;;;16.07;7.90;;;;;;;-2.00;70.43;100841.63;1681935;84;25691;-70
2022/03/08 01:43:45;;;;;;;17.62;7.20;;;;;;;-2.03;70.49;100846.02;1682106;85;25684;-70
2022/03/08 01:46:14;;;;;;;14.28;7.53;;;;;;;-2.06;70.63;100850.41;1656066;85;27508;-70
2022/03/08 01:48:41;;;;;;;16.52;7.62;;;;;;;-2.11;71.08;100845.77;1671453;85;25655;-70
2022/03/08 01:51:08;;;;;;;13.53;6.72;;;;;;;-2.13;71.11;100846.98;1682118;84;25659;-70
2022/03/08 01:53:38;;;;;;;15.48;6.85;;;;;;;-2.15;71.04;100843.22;1682052;84;26844;-70
2022/03/08 01:56:06;;;;;;;15.13;7.10;;;;;;;-2.18;71.26;100849.45;1682309;84;25694;-69
2022/03/08 01:58:32;;;;;;;12.75;7.08;;;;;;;-2.21;71.50;100844.56;1682327;85;27339;-69
2022/03/08 02:00:59;;;;;;;13.30;7.15;;;;;;;-2.23;71.32;100849.27;1682217;85;25712;-70
2022/03/08 02:03:25;;;;;;;13.58;7.12;;;;;;;-2.26;71.23;100853.17;1672016;85;25695;-70
2022/03/08 02:05:52;;;;;;;14.30;6.45;;;;;;;-2.29;71.64;100855.72;1682087;85;25733;-70
2022/03/08 02:08:18;;;;;;;12.05;6.97;;;;;;;-2.31;71.50;100859.09;1682234;84;25661;-70
2022/03/08 02:10:44;;;;;;;15.23;7.08;;;;;;;-2.33;71.78;100853.72;1682097;84;27339;-70
2022/03/08 02:13:11;;;;;;;17.52;7.33;;;;;;;-2.36;71.83;100852.28;1682066;85;25764;-70
2022/03/08 02:15:38;;;;;;;15.32;7.28;;;;;;;-2.37;72.04;100855.94;1682184;84;25655;-70
2022/03/08 02:18:04;;;;;;;16.17;7.90;;;;;;;-2.39;71.77;100855.86;1682065;85;25677;-70
2022/03/08 02:20:31;;;;;;;22.30;8.95;;;;;;;-2.42;72.00;100854.43;1682180;85;25478;-70
2022/03/08 02:22:58;;;;;;;15.90;8.60;;;;;;;-2.44;72.13;100863.11;1682176;84;27290;-70
2022/03/08 02:25:25;;;;;;;15.20;7.70;;;;;;;-2.49;72.03;100857.10;1655960;85;25597;-70
2022/03/08 02:27:54;;;;;;;16.60;8.60;;;;;;;-2.50;72.29;100860.79;1682152;85;25482;-69
2022/03/08 02:30:23;;;;;;;;;;;;;;;-2.52;72.24;100859.36;1684610;84;26322;-70
2022/03/08 02:32:50;;;;;;;10.58;6.00;;;;;;;-2.55;72.35;100861.13;1682180;85;25462;-71
2022/03/08 02:35:23;;;;;;;11.28;6.25;;;;;;;-2.57;72.54;100863.14;1682151;85;27397;-71
2022/03/08 02:37:58;;;;;;;13.03;6.72;;;;;;;-2.58;72.67;100870.80;1682093;85;26219;-69
2022/03/08 02:40:29;;;;;;;11.45;7.05;;;;;;;-2.61;72.67;100866.72;1682170;84;25397;-69
2022/03/08 02:42:56;;;;;;;17.12;7.60;;;;;;;-2.61;72.65;100869.36;1682155;85;26191;-69
2022/03/08 02:45:23;;;;;;;14.45;6.67;;;;;;;-2.60;72.73;100877.63;1682244;84;25731;-69
2022/03/08 02:47:50;;;;;;;14.13;6.47;;;;;;;-2.62;72.88;100871.73;1682173;85;26987;-70
2022/03/08 02:50:19;;;;;;;12.23;5.80;;;;;;;-2.64;72.93;100875.07;1681959;85;25692;-70
2022/03/08 02:52:51;;;;;;;13.25;6.70;;;;;;;-2.64;73.15;100873.75;1679923;85;25439;-70
2022/03/08 02:55:16;;;;;;;15.93;6.95;;;;;;;-2.65;73.08;100870.30;1677680;84;25633;-70
2022/03/08 02:57:43;;;;;;;10.13;6.05;;;;;;;-2.68;73.19;100882.62;1677728;85;25577;-70
2022/03/08 03:00:13;;;;;;;12.75;6.20;;;;;;;-2.68;73.41;100882.62;1677597;85;27317;-70
2022/03/08 03:02:39;;;;;;;12.60;5.95;;;;;;;-2.70;73.40;100883.34;1651830;85;25722;-70
2022/03/08 03:05:07;;;;;;;16.35;6.55;;;;;;;-2.71;73.64;100885.67;1677682;85;25579;-70
2022/03/08 03:07:34;;;;;;;11.57;7.05;;;;;;;-2.72;73.63;100887.23;1677742;84;26170;-70
2022/03/08 03:10:03;;;;;;;10.60;6.28;;;;;;;-2.73;74.00;100892.21;1677682;85;25661;-70
2022/03/08 03:12:29;;;;;;;;;;;;;;;-2.75;73.83;100888.44;1680324;85;27438;-70
2022/03/08 03:14:56;;;;;;;11.68;6.53;;;;;;;-2.75;74.16;100891.61;1677870;85;25614;-70
2022/03/08 03:17:23;;;;;;;14.90;7.42;;;;;;;-2.77;74.42;100898.43;1677868;84;25597;-71
2022/03/08 03:19:49;;;;;;;12.18;6.67;;;;;;;-2.78;74.18;100895.47;1677736;84;25795;-71
2022/03/08 03:22:16;;;;;;;15.18;7.10;;;;;;;-2.79;74.43;100899.64;1677807;84;26002;-70
2022/03/08 03:24:42;;;;;;;12.30;7.50;;;;;;;-2.79;74.49;100902.29;1677632;84;27892;-70
2022/03/08 03:27:08;;;;;;;12.13;6.65;;;;;;;-2.82;74.20;100895.07;1677534;85;25797;-70
2022/03/08 03:29:34;;;;;;;11.78;6.42;;;;;;;-2.82;74.44;100890.30;1677680;84;25707;-70
2022/03/08 03:32:01;;;;;;;14.83;7.62;;;;;;;-2.82;74.82;100900.36;1677743;84;25724;-70
2022/03/08 03:34:27;;;;;;;13.32;6.80;;;;;;;-2.81;74.78;100909.11;1668010;85;25662;-70
2022/03/08 03:36:54;;;;;;;13.48;7.67;;;;;;;-2.81;74.85;100909.11;1677682;85;27883;-70
2022/03/08 03:39:20;;;;;;;14.40;7.20;;;;;;;-2.82;74.92;100906.18;1677474;84;25542;-70
2022/03/08 03:41:47;;;;;;;11.22;7.10;;;;;;;-2.83;74.80;100909.83;1677587;84;25699;-70
2022/03/08 03:44:13;;;;;;;15.38;7.80;;;;;;;-2.83;74.69;100915.13;1677525;84;26453;-70
2022/03/08 03:46:40;;;;;;;16.15;7.53;;;;;;;-2.84;74.56;100920.14;1677614;85;25634;-70
2022/03/08 03:49:06;;;;;;;12.05;6.83;;;;;;;-2.85;74.95;100919.82;1677763;85;27230;-70
2022/03/08 03:51:33;;;;;;;14.13;7.80;;;;;;;-2.86;75.06;100913.72;1677651;84;25466;-71
2022/03/08 03:53:59;;;;;;;12.47;6.60;;;;;;;-2.86;75.08;100918.18;1659063;85;25586;-70
2022/03/08 03:56:26;;;;;;;15.70;7.55;;;;;;;-2.86;75.06;100920.83;1680133;84;26320;-70
2022/03/08 03:58:52;;;;;;;13.98;7.33;;;;;;;-2.88;75.25;100911.80;1669614;85;25489;-70
2022/03/08 04:01:19;;;;;;;14.43;7.47;;;;;;;-2.88;75.36;100915.77;1669594;85;26943;-70
2022/03/08 04:03:46;;;;;;;14.60;8.10;;;;;;;-2.89;75.11;100918.09;1669887;85;25417;-70
2022/03/08 04:06:13;;;;;;;15.18;7.72;;;;;;;-2.88;75.15;100920.22;1679973;85;25856;-70
2022/03/08 04:08:39;;;;;;;14.63;7.20;;;;;;;-2.88;75.49;100918.90;1680066;85;25712;-71
2022/03/08 04:11:06;;;;;;;15.50;7.47;;;;;;;-2.87;75.79;100929.81;1680054;85;25402;-71
2022/03/08 04:13:32;;;;;;;15.10;8.38;;;;;;;-2.89;75.88;100920.74;1679959;85;28206;-71
2022/03/08 04:15:58;;;;;;;13.68;7.55;;;;;;;-2.88;76.04;100921.06;1679861;84;25726;-71
2022/03/08 04:18:25;;;;;;;16.60;8.30;;;;;;;-2.86;76.22;100923.48;1680037;85;25642;-71
2022/03/08 04:20:51;;;;;;;16.02;8.45;;;;;;;-2.83;76.63;100931.02;1679908;85;26316;-71
2022/03/08 04:23:18;;;;;;;13.85;8.50;;;;;;;-2.78;77.01;100925.12;1680107;85;25677;-71
2022/03/08 04:25:44;;;;;;;14.75;9.25;;;;;;;-2.72;77.31;100926.95;1679967;85;27887;-70
2022/03/08 04:28:11;;;;;;;16.07;9.08;;;;;;;-2.66;77.52;100928.25;1679833;85;25617;-70
2022/03/08 04:30:38;;;;;;;22.25;10.15;;;;;;;-2.59;77.83;100926.91;1680019;85;25631;-70
2022/03/08 04:33:04;;;;;;;19.35;10.55;;;;;;;-2.53;77.83;100925.30;1679936;85;26219;-70
2022/03/08 04:35:31;;;;;;;19.30;9.38;;;;;;;-2.46;78.04;100925.57;1680178;85;25378;-70
2022/03/08 04:37:57;;;;;;;19.00;10.60;;;;;;;-2.40;78.10;100929.74;1680099;85;27577;-70
2022/03/08 04:40:23;;;;;;;18.35;9.78;;;;;;;-2.37;78.20;100927.48;1680028;84;25830;-70
2022/03/08 04:42:50;;;;;;;22.35;11.18;;;;;;;-2.30;77.99;100935.42;1680159;85;25448;-70
2022/03/08 04:45:17;;;;;;;19.77;10.00;;;;;;;-2.24;78.22;100933.80;1680040;84;25635;-70
2022/03/08 04:47:44;;;;;;;20.15;10.90;;;;;;;-2.18;78.34;100931.62;1680133;85;25665;-70
2022/03/08 04:50:14;;;;;;;22.73;11.60;;;;;;;-2.13;78.41;100931.81;1680169;85;27355;-70
2022/03/08 04:52:42;;;;;;;22.62;12.37;;;;;;;-2.09;78.22;100926.41;1680414;84;25406;-70
2022/03/08 04:55:09;;;;;;;23.90;12.18;;;;;;;-2.04;78.18;100935.04;1682116;85;25417;-71
2022/03/08 04:57:36;;;;;;;19.77;10.58;;;;;;;-1.99;78.25;100934.73;1695738;84;25577;-71
2022/03/08 05:00:06;;;;;;;21.95;13.25;;;;;;;-1.95;78.26;100935.93;1682084;85;25606;-71
2022/03/08 05:02:32;;;;;;;20.45;12.35;;;;;;;-1.91;78.17;100933.67;1681936;84;27375;-70
2022/03/08 05:04:58;;;;;;;23.60;13.15;;;;;;;-1.90;78.22;100933.46;1681993;84;25445;-70
2022/03/08 05:07:25;;;;;;;23.30;12.90;;;;;;;-1.85;78.24;100935.48;1682018;84;25386;-70
2022/03/08 05:09:51;;;;;;;25.15;14.30;;;;;;;-1.82;78.16;100942.20;1682016;84;25636;-70
2022/03/08 05:12:18;;;;;;;24.40;13.43;;;;;;;-1.80;78.15;100943.62;1681972;84;25633;-70
2022/03/08 05:14:44;;;;;;;29.12;14.93;;;;;;;-1.76;78.10;100941.36;1681967;85;27367;-70
2022/03/08 05:17:11;;;;;;;24.80;14.15;;;;;;;-1.73;78.17;100938.30;1681932;85;25633;-70
2022/03/08 05:19:37;;;;;;;24.35;13.90;;;;;;;-1.73;78.17;100946.25;1681994;85;25668;-70
2022/03/08 05:22:04;;;;;;;24.43;14.33;;;;;;;-1.69;78.15;100955.41;1681912;84;25618;-70
2022/03/08 05:24:30;;;;;;;23.92;14.35;;;;;;;-1.66;78.17;100961.62;1682015;84;25731;-70
2022/03/08 05:26:57;;;;;;;29.05;13.68;;;;;;;-1.64;78.12;100968.84;1681937;84;27323;-70
2022/03/08 05:29:23;;;;;;;29.98;15.68;;;;;;;-1.62;78.12;100972.63;1672145;84;25716;-70
2022/03/08 05:31:50;;;;;;;26.17;14.68;;;;;;;-1.61;78.11;100963.13;1672290;85;25717;-70
2022/03/08 05:34:16;;;;;;;26.50;15.23;;;;;;;-1.59;78.10;100963.72;1682071;85;25615;-70
2022/03/08 05:36:43;;;;;;;26.00;14.90;;;;;;;-1.58;78.06;100968.53;1682160;85;25558;-70
2022/03/08 05:39:11;;;;;;;23.10;14.43;;;;;;;-1.57;78.08;100959.01;1672267;85;27871;-70
2022/03/08 05:41:38;;;;;;;24.85;14.63;;;;;;;-1.53;78.00;100964.22;1682010;84;25841;-70
2022/03/08 05:44:04;;;;;;;29.18;15.85;;;;;;;-1.50;77.79;100965.61;1682165;84;25539;-70
2022/03/08 05:46:31;;;;;;;27.93;15.15;;;;;;;-1.48;77.77;100970.71;1682115;84;25654;-70
2022/03/08 05:48:57;;;;;;;26.73;14.50;;;;;;;-1.46;77.89;100983.25;1682215;85;25701;-71
2022/03/08 05:51:24;;;;;;;26.57;15.28;;;;;;;-1.42;78.02;100991.11;1682214;85;27368;-70
2022/03/08 05:53:50;;;;;;;25.60;15.50;;;;;;;-1.37;78.01;100993.94;1679710;84;25635;-70
2022/03/08 05:56:17;;;;;;;32.85;16.77;;;;;;;-1.33;78.08;100993.80;1677749;85;25397;-70
2022/03/08 05:58:43;;;;;;;28.17;15.98;;;;;;;-1.33;77.87;100996.45;1677536;85;25618;-70
2022/03/08 06:01:09;;;;;;;27.10;16.12;;;;;;;-1.33;77.75;100997.78;1677684;85;25393;-70
2022/03/08 06:03:36;;;;;;;26.68;15.58;;;;;;;-1.35;77.79;100990.03;1677751;85;27483;-70
2022/03/08 06:06:03;;;;;;;32.83;17.42;;;;;;;-1.31;77.85;101002.39;1677633;85;25701;-71
2022/03/08 06:08:29;;;;;;;29.23;16.80;;;;;;;-1.30;77.60;101009.30;1677600;85;25677;-70
2022/03/08 06:10:56;;;;;;;29.92;16.20;;;;;;;-1.30;77.67;101017.80;1677663;85;25622;-70
2022/03/08 06:13:23;;;;;;;32.88;16.80;;;;;;;-1.32;77.77;101021.98;1677676;85;25646;-70
2022/03/08 06:15:50;;;;;;;33.02;18.10;;;;;;;-1.33;77.73;101026.48;1677613;85;27360;-70
2022/03/08 06:18:17;;;;;;;31.30;17.00;;;;;;;-1.32;77.69;101028.09;1677522;85;25649;-70
2022/03/08 06:20:43;;;;;;;27.82;16.45;;;;;;;-1.31;77.70;101034.24;1651564;85;25706;-70
2022/03/08 06:23:09;;;;;;;25.70;16.00;;;;;;;-1.30;77.77;101041.68;1677621;85;25689;-70
2022/03/08 06:25:36;;;;;;;28.12;16.00;;;;;;;-1.30;77.81;101031.87;1677608;85;25598;-70
2022/03/08 06:28:03;;;;;;;26.33;16.30;;;;;;;-1.28;77.87;101023.70;1677663;85;27384;-70
2022/03/08 06:30:31;;;;;;;23.67;14.78;;;;;;;-1.27;77.74;101030.13;1679066;83;25838;-70
2022/03/08 06:32:57;;;;;;;24.60;13.98;;;;;;;-1.27;77.74;101037.28;1615678;87;26458;-70
2022/03/08 06:35:23;;;;;;;22.42;13.93;;;;;;;-1.25;77.81;101032.05;1589792;88;25865;-70
2022/03/08 06:37:50;;;;;;;25.60;14.35;;;;;;;-1.23;77.81;101037.15;1607193;87;25734;-70
2022/03/08 06:40:17;;;;;;;22.32;12.95;;;;;;;-1.22;77.77;101032.15;1608958;87;27312;-69
2022/03/08 06:42:44;;;;;;;22.32;13.10;;;;;;;-1.22;77.77;101026.84;1616887;88;25592;-69
2022/03/08 06:45:11;;;;;;;21.02;12.03;;;;;;;-1.18;77.73;101028.03;1616866;88;25609;-70
2022/03/08 06:47:38;;;;;;;24.82;13.28;;;;;;;-1.18;77.73;101031.49;1663091;85;25743;-69
2022/03/08 06:50:06;;;;;;;21.37;12.60;;;;;;;-1.16;77.79;101029.95;1663031;86;25604;-69
2022/03/08 06:52:33;;;;;;;21.48;12.53;;;;;;;-1.17;77.71;101021.70;1663052;86;27924;-69
2022/03/08 06:54:59;;;;;;;21.77;12.15;;;;;;;-1.16;77.76;101029.46;1638949;86;25625;-69
2022/03/08 06:57:26;;;;;;;24.32;13.85;;;;;;;-1.11;77.94;101035.96;1663001;86;25959;-70
2022/03/08 06:59:52;;;;;;;29.40;16.95;;;;;;;-1.13;77.80;101033.00;1663071;84;26479;-70
2022/03/08 07:02:19;;;;;;;23.60;14.25;;;;;;;-1.09;77.80;101037.39;1653554;84;25617;-70
2022/03/08 07:04:45;;;;;;;23.77;12.65;;;;;;;-1.06;77.90;101041.45;1676729;85;27287;-70
2022/03/08 07:07:12;;;;;;;22.62;12.65;;;;;;;-1.07;77.87;101046.45;1665737;85;25681;-70
2022/03/08 07:09:38;;;;;;;23.22;13.43;;;;;;;-1.05;77.87;101051.05;1663062;86;25626;-70
2022/03/08 07:12:05;;;;;;;21.10;12.55;;;;;;;-1.03;77.78;101050.33;1662938;86;25792;-70
2022/03/08 07:14:31;;;;;;;22.50;13.58;;;;;;;-1.01;77.80;101048.27;1645616;86;25491;-70
2022/03/08 07:16:58;;;;;;;20.17;12.95;;;;;;;-1.00;77.76;101054.69;1663062;86;27321;-70
2022/03/08 07:19:24;;;;;;;22.90;13.05;;;;;;;-0.96;77.87;101053.75;1663064;86;25469;-70
2022/03/08 07:21:51;;;;;;;26.50;16.25;;;;;;;-0.94;77.92;101057.00;1662631;86;25819;-70
2022/03/08 07:24:17;;;;;;;25.57;15.95;;;;;;;-0.89;77.98;101063.81;1646455;85;26527;-69
2022/03/08 07:26:44;;;;;;;23.10;12.53;;;;;;;-0.86;78.01;101068.70;1646548;85;26270;-70
2022/03/08 07:29:10;;;;;;;22.45;13.30;;;;;;;-0.85;77.74;101068.18;1654274;86;27346;-70
2022/03/08 07:31:37;;;;;;;19.98;12.65;;;;;;;-0.84;77.62;101075.13;1654203;86;25821;-70
2022/03/08 07:34:03;;;;;;;22.07;13.10;;;;;;;-0.86;77.46;101070.55;1654305;86;25732;-70
2022/03/08 07:36:30;;;;;;;22.22;13.53;;;;;;;-0.86;77.41;101078.00;1654135;86;25706;-71
2022/03/08 07:38:56;;;;;;;21.15;12.28;;;;;;;-0.84;77.52;101080.44;1654507;86;25791;-70
2022/03/08 07:41:22;;;;;;;21.50;12.15;;;;;;;-0.88;77.40;101074.75;1654494;86;27331;-70
2022/03/08 07:43:49;;;;;;;23.73;13.35;;;;;;;-0.85;77.41;101081.45;1617726;88;26286;-70
2022/03/08 07:46:15;;;;;;;20.65;13.05;;;;;;;-0.82;77.60;101081.88;1593575;88;25878;-70
2022/03/08 07:48:43;;;;;;;19.95;12.35;;;;;;;-0.78;77.54;101069.78;1590887;90;26364;-70
2022/03/08 07:51:09;;;;;;;23.75;13.98;;;;;;;-0.72;77.62;101068.09;1608155;87;25772;-70
2022/03/08 07:53:36;;;;;;;22.67;12.28;;;;;;;-0.67;77.71;101066.94;1653188;86;27568;-70
2022/03/08 07:56:02;;;;;;;20.60;12.23;;;;;;;-0.63;77.61;101070.81;1596262;88;25726;-72
2022/03/08 07:58:29;;;;;;;22.22;14.47;;;;;;;-0.57;77.74;101069.93;1614443;88;25765;-72
2022/03/08 08:00:55;;;;;;;21.55;13.25;;;;;;;-0.51;77.63;101062.12;1612924;88;25675;-72
2022/03/08 08:03:22;;;;;;;20.40;13.05;;;;;;;-0.47;77.51;101062.01;1612887;88;26280;-72
2022/03/08 08:05:49;;;;;;;25.35;14.30;;;;;;;-0.43;77.70;101057.35;1563211;89;28049;-73
2022/03/08 08:08:15;;;;;;;21.35;13.05;;;;;;;-0.34;77.67;101062.41;1600176;89;25835;-70
2022/03/08 08:10:42;;;;;;;25.43;13.45;;;;;;;-0.27;77.69;101060.52;1599950;89;25781;-71
2022/03/08 08:13:08;;;;;;;20.45;12.90;;;;;;;-0.19;77.53;101066.87;1600240;89;25821;-71
2022/03/08 08:15:36;;;;;;;23.62;13.15;;;;;;;-0.11;77.57;101055.96;1600289;89;25729;-71
2022/03/08 08:18:03;;;;;;;20.65;13.65;;;;;;;-0.05;77.40;101063.07;1633770;87;27339;-71
2022/03/08 08:20:30;;;;;;;21.07;13.48;;;;;;;0.02;77.22;101062.17;1611642;87;26534;-72
2022/03/08 08:22:56;;;;;;;24.00;13.38;;;;;;;0.06;77.07;101062.86;1633603;87;25822;-72
2022/03/08 08:25:23;;;;;;;22.22;13.05;;;;;;;0.12;76.88;101067.80;1633604;86;25781;-70
2022/03/08 08:27:49;;;;;;;20.68;13.48;;;;;;;0.16;76.91;101063.69;1633601;87;25770;-70
2022/03/08 08:30:16;;;;;;;24.80;14.40;;;;;;;0.20;76.53;101067.52;1638201;86;27499;-69
2022/03/08 08:32:44;;;;;;;24.98;14.60;;;;;;;0.14;76.23;101061.25;1612634;88;25675;-70
2022/03/08 08:35:11;;;;;;;26.55;17.23;;;;;;;0.21;76.15;101055.86;1614485;88;25867;-70
2022/03/08 08:37:38;;;;;;;42.90;22.67;;;;;;;0.21;75.99;101063.03;1612661;88;26433;-71
2022/03/08 08:40:06;;;;;;;31.20;16.17;;;;;;;0.21;76.00;101066.50;1612904;88;25814;-71
2022/03/08 08:42:33;;;;;;;28.23;15.77;;;;;;;0.24;76.16;101063.90;1612895;88;27379;-71
2022/03/08 08:44:59;;;;;;;27.10;13.95;;;;;;;0.26;76.06;101057.34;1612723;88;25718;-71
2022/03/08 08:47:27;;;;;;;26.05;15.40;;;;;;;0.28;75.87;101055.78;1612928;88;25699;-71
2022/03/08 08:49:53;;;;;;;26.50;15.35;;;;;;;0.29;75.85;101051.58;1612769;88;25813;-71
2022/03/08 08:52:20;;;;;;;22.62;13.88;;;;;;;0.28;75.70;101057.12;1612706;88;25745;-72
2022/03/08 08:54:47;;;;;;;27.98;16.65;;;;;;;0.30;75.81;101049.72;1628315;87;27342;-71
2022/03/08 08:57:15;;;;;;;33.23;20.23;;;;;;;0.35;75.93;101053.33;1679556;85;25759;-71
2022/03/08 08:59:41;;;;;;;22.80;14.70;;;;;;;0.41;75.94;101049.48;1698511;83;26456;-72
2022/03/08 09:02:09;;;;;;;17.40;11.90;;;;;;;0.41;75.76;101048.98;1707893;83;26256;-72
2022/03/08 09:04:36;;;;;;;16.97;10.82;;;;;;;0.46;75.70;101046.97;1726620;83;25722;-71
2022/03/08 09:07:03;;;;;;;14.78;9.88;;;;;;;0.49;75.53;101042.53;1680182;85;27354;-71
2022/03/08 09:09:29;;;;;;;13.45;9.85;;;;;;;0.50;75.24;101036.19;1666675;86;25814;-72
2022/03/08 09:11:56;;;;;;;14.07;9.95;;;;;;;0.57;75.51;101034.78;1679928;85;25720;-72
2022/03/08 09:14:22;;;;;;;13.93;8.68;;;;;;;0.67;75.56;101031.06;1679963;85;25816;-72
2022/03/08 09:16:48;;;;;;;11.88;8.60;;;;;;;0.92;76.35;101027.74;1698836;83;25331;-72
2022/03/08 09:19:15;;;;;;;11.22;7.85;;;;;;;1.33;76.09;101025.30;1684342;84;27391;-72
2022/03/08 09:21:41;;;;;;;10.78;8.28;;;;;;;2.07;77.57;101021.38;1690413;84;25739;-72
2022/03/08 09:24:08;;;;;;;12.75;6.83;;;;;;;3.27;79.07;101020.16;1697038;84;25704;-72
2022/03/08 09:26:34;;;;;;;9.33;6.70;;;;;;;4.08;75.91;101005.84;1697706;84;25701;-72
2022/03/08 09:29:00;;;;;;;7.90;6.40;;;;;;;4.50;73.94;101011.19;1697677;84;25815;-73
2022/03/08 09:31:27;;;;;;;18.75;12.30;;;;;;;4.72;72.15;101005.00;1679644;84;27883;-72
2022/03/08 09:33:53;;;;;;;26.30;14.90;;;;;;;4.78;70.32;100998.61;1697522;84;26381;-73
2022/03/08 09:36:20;;;;;;;9.48;6.85;;;;;;;4.81;69.77;100997.58;1697051;84;25772;-72
2022/03/08 09:38:46;;;;;;;8.05;5.97;;;;;;;4.85;68.30;101001.39;1677285;84;25727;-72
2022/03/08 09:41:14;;;;;;;8.20;6.17;;;;;;;4.78;66.62;100993.25;1685321;84;25910;-72
2022/03/08 09:43:40;;;;;;;6.53;4.85;;;;;;;4.66;65.95;100995.54;1679819;85;27399;-72
2022/03/08 09:46:08;;;;;;;7.12;5.62;;;;;;;4.67;66.13;101003.07;1669526;85;25801;-72
2022/03/08 09:48:35;;;;;;;7.03;6.30;;;;;;;4.64;65.88;100998.20;1682268;84;25800;-71
2022/03/08 09:51:04;;;;;;;9.20;6.05;;;;;;;4.69;65.29;101004.96;1653222;86;25720;-72
2022/03/08 09:53:31;;;;;;;7.78;6.72;;;;;;;4.63;64.72;101004.11;1618528;88;25677;-72
2022/03/08 09:56:00;;;;;;;9.05;6.75;;;;;;;4.56;64.22;101006.69;1626945;85;27430;-72
2022/03/08 09:58:27;;;;;;;10.93;6.15;;;;;;;4.46;63.67;101004.19;1619894;86;25905;-72
2022/03/08 10:00:55;;;;;;;8.23;6.53;;;;;;;4.35;63.88;101001.63;1627496;86;25739;-73
2022/03/08 10:03:39;;;;;;;8.45;6.87;;;;;;;4.31;63.81;100998.66;1613970;88;25779;-73
2022/03/08 10:06:07;;;;;;;8.08;6.67;;;;;;;4.34;64.06;100995.45;1610355;88;25748;-73
2022/03/08 10:08:34;;;;;;;8.98;6.50;;;;;;;4.39;64.12;100994.70;1627038;86;27404;-72
2022/03/08 10:11:05;;;;;;;15.30;10.35;;;;;;;4.53;64.01;100991.11;1593621;86;25673;-73
2022/03/08 10:13:43;;;;;;;10.15;6.83;;;;;;;5.15;64.20;100989.31;1626878;86;25936;-73
2022/03/08 10:16:22;;;;;;;9.65;6.40;;;;;;;5.26;62.55;100990.73;1615691;86;25826;-72
2022/03/08 10:18:57;;;;;;;;;;;;;;;5.24;61.88;100971.70;1630232;86;25763;-74
2022/03/08 10:21:43;;;;;;;8.43;6.15;;;;;;;5.31;61.46;100976.02;1626681;86;27517;-73
2022/03/08 10:24:32;;;;;;;8.10;6.55;;;;;;;5.53;61.69;100975.36;1626824;88;25807;-71
2022/03/08 10:27:03;;;;;;;8.45;6.35;;;;;;;5.61;60.63;100971.41;1629235;86;25643;-71
2022/03/08 10:29:36;;;;;;;6.83;5.85;;;;;;;5.63;60.21;100970.61;1626999;86;25713;-72
2022/03/08 10:32:21;;;;;;;6.87;5.90;;;;;;;5.65;60.47;100970.35;1626958;87;25663;-72
2022/03/08 10:34:52;;;;;;;7.03;6.05;;;;;;;5.78;60.09;100976.06;1628921;86;28030;-72
2022/03/08 10:37:23;;;;;;;10.95;5.15;;;;;;;5.90;60.00;100971.83;1626968;86;25746;-72
2022/03/08 10:40:08;;;;;;;8.58;5.95;;;;;;;6.00;59.07;100977.83;1628234;86;25859;-71
2022/03/08 10:42:40;;;;;;;6.03;4.85;;;;;;;5.94;59.01;100981.00;1626868;87;25755;-71
2022/03/08 10:45:11;;;;;;;6.05;4.78;;;;;;;5.95;58.39;100981.80;1627150;87;26372;-71
2022/03/08 10:47:51;;;;;;;5.85;4.90;;;;;;;5.91;58.08;100973.46;1639359;87;27332;-72
2022/03/08 10:50:23;;;;;;;5.53;4.67;;;;;;;5.81;57.66;100973.41;1680425;85;25754;-72
2022/03/08 10:52:53;;;;;;;6.90;4.72;;;;;;;5.77;57.64;100966.92;1667337;85;25475;-72
2022/03/08 10:55:33;;;;;;;9.25;5.95;;;;;;;5.79;57.96;100963.47;1661266;85;25711;-72
2022/03/08 10:58:10;;;;;;;6.25;5.10;;;;;;;5.92;57.51;100957.61;1669271;85;25859;-71
2022/03/08 11:00:47;;;;;;;6.30;4.97;;;;;;;5.99;57.39;100962.77;1671484;85;27415;-71
2022/03/08 11:03:19;;;;;;;7.53;4.87;;;;;;;6.22;57.65;100959.39;1673072;85;25782;-71
2022/03/08 11:05:50;;;;;;;5.90;5.05;;;;;;;6.59;56.50;100959.75;1672312;85;25612;-72
2022/03/08 11:08:18;;;;;;;7.62;5.40;;;;;;;6.67;56.35;100959.23;1654050;85;25788;-72
2022/03/08 11:10:46;;;;;;;7.37;5.50;;;;;;;6.72;55.71;100961.42;1647680;85;25681;-72
2022/03/08 11:13:16;;;;;;;8.30;5.70;;;;;;;6.77;55.57;100957.91;1673318;84;27407;-73
2022/03/08 11:15:43;;;;;;;7.87;5.40;;;;;;;6.87;55.58;100962.50;1672694;85;25618;-73
2022/03/08 11:18:13;;;;;;;8.33;5.90;;;;;;;6.82;55.05;100961.95;1671749;85;25512;-72
2022/03/08 11:20:44;;;;;;;8.60;5.15;;;;;;;6.80;55.10;100952.55;1689325;84;25713;-72